Flight Track Log - Related Links

Times and Time Zones

All times are in EDT time to prevent confusion due to time zone crossing. See the SWA286 flight status page for this flight to view local times or setup timezone preferences in your user account.

Time Position Orientation Groundspeed Altitude Reporting Facility
EDT Latitude Longitude Course Direction KTS MPH feet Rate Location/Type
Fri 03:40:58 PM 40.8231 -73.0708 241° Southwest 173 199 2,000  Level Boston Center
Fri 03:41:58 PM 40.8528 -73.0000 61° Northeast 207 238 4,400 2,876 Climbing Boston Center
Fri 03:42:59 PM 40.8553 -72.9039 88° East 233 268 7,800 1,835 Climbing Boston Center
Fri 03:43:59 PM 40.8536 -72.7886 91° East 265 305 8,100 843 Climbing Boston Center
Fri 03:45:00 PM 40.8225 -72.6869 112° Southeast 294 338 9,500 1,412 Climbing Boston Center
Fri 03:45:58 PM 40.7644 -72.6044 133° Southeast 303 349 10,900 2,218 Climbing Boston Center
Fri 03:46:00 PM 40.4955 -73.7923 241° Southwest  Level Estimated
Fri 03:46:59 PM 40.6769 -72.6125 184° South 273 314 13,900  Level Boston Center
Fri 03:48:00 PM 40.6036 -72.6944 220° Southwest 274 315 17,000 2,571 Climbing Boston Center
Fri 03:48:58 PM 40.5472 -72.8114 238° Southwest 310 357 19,000 1,780 Climbing Boston Center
Fri 03:49:58 PM 40.4989 -72.9178 239° Southwest 343 395 20,500 1,835 Climbing Boston Center
Fri 03:50:59 PM 40.4067 -73.0014 215° Southwest 372 428 22,700 2,213 Climbing Boston Center
Fri 03:52:00 PM 40.3167 -73.0961 219° Southwest 404 465 25,000 2,013 Climbing Boston Center
Fri 03:53:37 PM 40.1781 -73.2511 221° Southwest 399 459 28,000 1,146 Climbing Washington Center
Fri 03:54:37 PM 40.0944 -73.3406 219° Southwest 399 459 28,000  Level Washington Center
Fri 03:55:37 PM 40.0025 -73.4356 218° Southwest 412 474 28,000  Level Washington Center
Fri 03:56:37 PM 39.9164 -73.5275 219° Southwest 419 482 28,000  Level Washington Center
Fri 03:57:37 PM 39.8244 -73.6219 218° Southwest 419 482 28,000  Level Washington Center
Fri 03:58:37 PM 39.7364 -73.7161 219° Southwest 414 476 28,000 -550 Level Washington Center
Fri 03:59:37 PM 39.6461 -73.8075 218° Southwest 414 476 26,900 -1,300 Descending Washington Center
Fri 04:00:37 PM 39.5578 -73.8986 219° Southwest 414 476 25,400 -1,400 Descending Washington Center
Fri 04:01:37 PM 39.4714 -73.9892 219° Southwest 414 476 24,100 -700 Descending Washington Center
Fri 04:02:37 PM 39.3831 -74.0825 219° Southwest 414 476 24,000 -50 Descending Washington Center
Fri 04:03:37 PM 39.2925 -74.1731 218° Southwest 414 476 24,000 -300 Level Washington Center
Fri 04:04:37 PM 39.2058 -74.2603 218° Southwest 414 476 23,400 -1,000 Descending Washington Center
Fri 04:05:37 PM 39.1233 -74.3447 218° Southwest 409 471 22,000 -1,400 Descending Washington Center
Fri 04:06:37 PM 39.0408 -74.4317 219° Southwest 398 458 20,600 -1,400 Descending Washington Center
Fri 04:07:37 PM 38.9583 -74.5186 219° Southwest 393 452 19,200 -1,500 Descending Washington Center
Fri 04:08:37 PM 38.9219 -74.6392 249° West 370 426 17,600 -1,800 Descending Washington Center
Fri 04:09:37 PM 38.8958 -74.7675 255° West 363 418 15,600 -1,850 Descending Washington Center
Fri 04:10:37 PM 38.8842 -74.9064 264° West 363 418 13,900 -1,150 Descending Washington Center
Fri 04:11:37 PM 38.8953 -75.0261 277° West 354 407 13,300 -1,000 Descending Washington Center
Fri 04:12:37 PM 38.9000 -75.1408 273° West 336 387 11,900 -950 Descending Washington Center
Fri 04:13:37 PM 38.9086 -75.2583 275° West 331 381 11,400 -500 Descending Washington Center
Fri 04:14:37 PM 38.9131 -75.3622 273° West 319 367 10,900 -200 Descending Washington Center
Fri 04:15:37 PM 38.9092 -75.4636 267° West 306 352 11,000 50 Climbing Washington Center
Fri 04:16:37 PM 38.8861 -75.5622 253° West 296 341 11,000  Level Washington Center
Fri 04:17:37 PM 38.8592 -75.6636 251° West 296 341 11,000  Level Washington Center
Fri 04:18:37 PM 38.8319 -75.7756 253° West 315 362 11,000  Level Washington Center
Fri 04:19:37 PM 38.8003 -75.8900 250° West 332 382 11,000  Level Washington Center
Fri 04:20:37 PM 38.7708 -76.0044 252° West 337 388 11,000 -50 Level Washington Center
Fri 04:21:37 PM 38.7475 -76.1294 257° West 349 402 10,900 -100 Descending Washington Center
Fri 04:22:37 PM 38.7803 -76.2281 293° West 342 394 10,800 -550 Descending Washington Center
Fri 04:23:37 PM 38.8442 -76.3486 304° West 341 392 9,800 -650 Descending Washington Center
Fri 04:24:37 PM 38.8894 -76.4369 303° West 333 383 9,500 -919 Descending Washington Center
Fri 04:25:28 PM 38.9167 -76.5000 299° West 268 308 8,100 -1,676 Descending Potomac TRACON
Fri 04:26:28 PM 38.9667 -76.5833 308° West 273 314 6,400 -1,550 Descending Potomac TRACON
Fri 04:27:28 PM 39.0000 -76.6667 297° West 277 319 5,000 -700 Descending Potomac TRACON
Fri 04:28:28 PM 39.0333 -76.7500 297° West 229 264 5,000 -347 Level Potomac TRACON
Fri 04:29:29 PM 39.0667 -76.8167 303° West 222 255 4,300 -496 Descending Potomac TRACON
Fri 04:30:29 PM 39.0833 -76.8833 288° West 184 212 4,000 -150 Descending Potomac TRACON
Fri 04:31:29 PM 39.1000 -76.9333 293° West 176 203 4,000 -450 Level Potomac TRACON
Fri 04:32:29 PM 39.1500 -76.9667 333° Northwest 193 222 3,100 -550 Descending Potomac TRACON
Fri 04:33:29 PM 39.1833 -76.9500 21° North 191 220 2,900 -496 Descending Potomac TRACON
Fri 04:34:30 PM 39.1833 -76.9000 90° East 173 199 2,100 -446 Descending Potomac TRACON
Fri 04:35:30 PM 39.1833 -76.8333 90° East 158 182 2,000 -300 Descending Potomac TRACON
Fri 04:36:30 PM 39.1833 -76.7833 90° East 163 188 1,500 -595 Descending Potomac TRACON
Fri 04:37:31 PM 39.1833 -76.7333 90° East 133 153 800 -689 Descending Potomac TRACON

Login

Don't have an account? Register now (free) for customized features, flight alerts, and more!